createdAt,value
2022-09-14T00:02:17.187Z,63.04
2022-09-14T00:04:43.817Z,63.29
2022-09-14T00:07:10.368Z,63.49
2022-09-14T00:09:36.987Z,63.42
2022-09-14T00:12:03.641Z,63.17
2022-09-14T00:14:30.271Z,62.92
2022-09-14T00:16:56.880Z,63.06
2022-09-14T00:19:25.616Z,63.48
2022-09-14T00:21:53.438Z,63.22
2022-09-14T00:24:20.016Z,63.53
2022-09-14T00:26:46.554Z,63.47
2022-09-14T00:29:13.130Z,63.12
2022-09-14T00:31:39.741Z,63.83
2022-09-14T00:34:06.984Z,63.24
2022-09-14T00:36:37.267Z,63.59
2022-09-14T00:39:03.896Z,63.28
2022-09-14T00:41:32.874Z,63.15
2022-09-14T00:44:11.536Z,63.37
2022-09-14T00:46:40.868Z,63.45
2022-09-14T00:49:11.951Z,63.44
2022-09-14T00:51:41.418Z,63.60
2022-09-14T00:54:08.000Z,63.41
2022-09-14T00:56:34.516Z,63.25
2022-09-14T00:59:03.984Z,63.71
2022-09-14T01:01:30.471Z,63.20
2022-09-14T01:03:56.952Z,63.37
2022-09-14T01:06:38.829Z,63.58
2022-09-14T01:09:44.391Z,63.31
2022-09-14T01:12:21.204Z,63.31
2022-09-14T01:15:31.989Z,63.86
2022-09-14T01:18:08.311Z,63.72
2022-09-14T01:20:38.786Z,63.45
2022-09-14T01:23:17.102Z,63.53
2022-09-14T01:26:14.031Z,63.87
2022-09-14T01:28:49.673Z,63.64
2022-09-14T01:31:37.683Z,63.96
2022-09-14T01:34:24.597Z,63.88
2022-09-14T01:36:53.411Z,63.60
2022-09-14T01:39:20.115Z,64.11
2022-09-14T01:41:47.056Z,63.96
2022-09-14T01:44:18.318Z,63.80
2022-09-14T01:46:54.957Z,63.53
2022-09-14T01:49:52.057Z,63.33
2022-09-14T01:52:27.321Z,63.61
2022-09-14T01:55:18.703Z,63.77
2022-09-14T01:57:48.765Z,63.89
2022-09-14T02:00:16.884Z,64.14
2022-09-14T02:02:46.813Z,63.96
2022-09-14T02:05:30.803Z,63.95
2022-09-14T02:07:57.833Z,64.02
2022-09-14T02:10:24.471Z,64.16
2022-09-14T02:12:52.123Z,63.75
2022-09-14T02:15:18.787Z,63.97
2022-09-14T02:17:45.264Z,63.65
2022-09-14T02:20:16.232Z,64.24
2022-09-14T02:22:42.728Z,63.94
2022-09-14T02:25:09.355Z,64.04
2022-09-14T02:27:35.821Z,64.08
2022-09-14T02:30:02.491Z,63.94
2022-09-14T02:32:52.063Z,64.12
2022-09-14T02:35:47.542Z,64.12
2022-09-14T02:38:32.812Z,63.91
2022-09-14T02:41:13.952Z,64.21
2022-09-14T02:44:05.833Z,64.27
2022-09-14T02:47:06.693Z,63.84
2022-09-14T02:49:33.084Z,63.88
2022-09-14T02:52:26.109Z,64.13
2022-09-14T02:54:57.792Z,64.13
2022-09-14T02:57:24.633Z,64.15
2022-09-14T02:59:53.500Z,64.12
2022-09-14T03:02:20.096Z,64.38
2022-09-14T03:04:47.088Z,64.47
2022-09-14T03:07:13.599Z,64.47
2022-09-14T03:09:40.105Z,64.08
2022-09-14T03:12:06.628Z,64.29
2022-09-14T03:14:33.157Z,64.14
2022-09-14T03:16:59.645Z,64.28
2022-09-14T03:19:26.214Z,64.26
2022-09-14T03:21:52.719Z,64.56
2022-09-14T03:24:19.193Z,64.28
2022-09-14T03:26:46.302Z,64.22
2022-09-14T03:29:12.783Z,64.09
2022-09-14T03:31:39.312Z,64.22
2022-09-14T03:34:05.835Z,64.21
2022-09-14T03:36:32.375Z,64.35
2022-09-14T03:38:59.616Z,64.09
2022-09-14T03:41:26.159Z,64.44
2022-09-14T03:43:52.754Z,64.37
2022-09-14T03:46:22.860Z,64.22
2022-09-14T03:48:49.482Z,64.26
2022-09-14T03:51:16.045Z,64.05
2022-09-14T03:53:43.275Z,64.15
2022-09-14T03:56:15.386Z,64.18
2022-09-14T03:58:42.460Z,64.30
2022-09-14T04:01:10.677Z,64.51
2022-09-14T04:03:37.531Z,64.26
2022-09-14T04:06:07.380Z,64.36
2022-09-14T04:08:34.670Z,64.34
2022-09-14T04:11:01.366Z,64.69
2022-09-14T04:13:27.914Z,64.26
2022-09-14T04:15:58.654Z,64.26
2022-09-14T04:18:25.592Z,64.44
2022-09-14T04:20:56.419Z,64.35
2022-09-14T04:23:23.039Z,64.21
2022-09-14T04:25:49.584Z,64.27
2022-09-14T04:28:20.621Z,64.67
2022-09-14T04:31:00.588Z,64.43
2022-09-14T04:33:30.063Z,64.37
2022-09-14T04:36:07.871Z,64.38
2022-09-14T04:38:35.174Z,64.70
2022-09-14T04:41:13.757Z,64.63
2022-09-14T04:43:40.402Z,64.79
2022-09-14T04:46:11.906Z,64.42
2022-09-14T04:48:38.476Z,64.96
2022-09-14T04:51:10.112Z,64.91
2022-09-14T04:53:37.420Z,64.60
2022-09-14T04:56:05.252Z,64.51
2022-09-14T04:58:32.755Z,64.79
2022-09-14T05:01:06.216Z,64.82
2022-09-14T05:03:32.700Z,65.58
2022-09-14T05:06:03.156Z,66.87
2022-09-14T05:08:29.680Z,67.50
2022-09-14T05:10:56.735Z,68.71
2022-09-14T05:13:23.575Z,68.95
2022-09-14T05:15:50.567Z,68.76
2022-09-14T05:18:18.242Z,68.26
2022-09-14T05:20:44.787Z,67.50
2022-09-14T05:23:11.580Z,67.29
2022-09-14T05:25:38.110Z,67.03
2022-09-14T05:28:04.619Z,67.24
2022-09-14T05:30:31.097Z,68.41
2022-09-14T05:32:58.225Z,68.95
2022-09-14T05:35:24.783Z,68.39
2022-09-14T05:37:51.327Z,68.54
2022-09-14T05:40:17.934Z,68.69
2022-09-14T05:42:44.476Z,68.24
2022-09-14T05:45:11.071Z,67.80
2022-09-14T05:47:39.309Z,67.33
2022-09-14T05:50:08.368Z,67.40
2022-09-14T05:52:34.884Z,66.93
2022-09-14T05:55:01.816Z,67.18
2022-09-14T05:57:28.316Z,66.92
2022-09-14T05:59:54.825Z,66.94
2022-09-14T06:02:21.377Z,67.10
2022-09-14T06:04:47.969Z,67.10
2022-09-14T06:07:18.843Z,67.66
2022-09-14T06:09:45.693Z,67.39
2022-09-14T06:12:14.505Z,67.71
2022-09-14T06:14:40.987Z,67.92
2022-09-14T06:17:07.502Z,68.06
2022-09-14T06:19:34.024Z,67.09
2022-09-14T06:22:00.735Z,67.33
2022-09-14T06:24:27.279Z,66.83
2022-09-14T06:26:53.815Z,66.98
2022-09-14T06:29:20.306Z,66.71
2022-09-14T06:31:46.841Z,66.98
2022-09-14T06:34:13.315Z,67.03
2022-09-14T06:36:39.824Z,66.62
2022-09-14T06:39:06.315Z,67.09
2022-09-14T06:41:34.335Z,66.83
2022-09-14T06:44:01.804Z,66.96
2022-09-14T06:46:32.639Z,66.67
2022-09-14T06:49:07.359Z,66.55
2022-09-14T06:51:35.672Z,66.99
2022-09-14T06:54:02.343Z,67.04
2022-09-14T06:56:30.880Z,66.54
2022-09-14T06:58:58.043Z,66.55
2022-09-14T07:01:25.960Z,66.69
2022-09-14T07:03:52.830Z,66.90
2022-09-14T07:06:21.085Z,66.45
2022-09-14T07:08:48.199Z,66.90
2022-09-14T07:11:15.643Z,66.91
2022-09-14T07:13:42.139Z,66.80
2022-09-14T07:16:08.920Z,66.79
2022-09-14T07:18:35.869Z,66.25
2022-09-14T07:21:05.737Z,66.60
2022-09-14T07:23:32.551Z,66.65
2022-09-14T07:26:05.460Z,66.63
2022-09-14T07:28:33.094Z,66.44
2022-09-14T07:31:00.158Z,66.22
2022-09-14T07:33:26.838Z,66.13
2022-09-14T07:35:53.491Z,66.25
2022-09-14T07:38:30.732Z,66.33
2022-09-14T07:41:07.064Z,66.39
2022-09-14T07:43:33.670Z,66.59
2022-09-14T07:46:04.401Z,66.65
2022-09-14T07:48:32.585Z,66.21
2022-09-14T07:51:03.337Z,66.19
2022-09-14T07:53:30.203Z,65.88
2022-09-14T07:56:00.816Z,65.81
2022-09-14T07:58:28.175Z,65.99
2022-09-14T08:01:08.552Z,66.48
2022-09-14T08:03:38.662Z,65.85
2022-09-14T08:06:10.820Z,66.27
2022-09-14T08:08:38.704Z,66.16
2022-09-14T08:11:11.744Z,66.41
2022-09-14T08:13:39.707Z,66.03
2022-09-14T08:16:06.487Z,66.30
2022-09-14T08:18:33.380Z,66.32
2022-09-14T08:21:07.899Z,66.00
2022-09-14T08:23:34.673Z,66.40
2022-09-14T08:26:17.637Z,66.51
2022-09-14T08:28:44.356Z,66.14
2022-09-14T08:31:21.357Z,66.11
2022-09-14T08:33:49.900Z,66.33
2022-09-14T08:36:19.760Z,66.19
2022-09-14T08:38:46.312Z,66.65
2022-09-14T08:41:51.253Z,66.52
2022-09-14T08:44:25.837Z,66.50
2022-09-14T08:47:12.167Z,66.46
2022-09-14T08:50:07.089Z,66.54
2022-09-14T08:52:43.267Z,66.12
2022-09-14T08:55:37.755Z,66.37
2022-09-14T08:58:10.326Z,66.04
2022-09-14T09:00:41.860Z,66.15
2022-09-14T09:03:17.419Z,66.22
2022-09-14T09:05:52.539Z,66.44
2022-09-14T09:08:39.446Z,66.38
2022-09-14T09:11:07.293Z,66.30
2022-09-14T09:13:35.753Z,66.03
2022-09-14T09:16:07.693Z,65.91
2022-09-14T09:18:43.850Z,66.17
2022-09-14T09:21:17.307Z,65.86
2022-09-14T09:23:44.025Z,66.28
2022-09-14T09:26:25.567Z,65.95
2022-09-14T09:28:53.528Z,66.36
2022-09-14T09:31:24.553Z,66.17
2022-09-14T09:33:51.217Z,66.12
2022-09-14T09:36:18.423Z,66.44
2022-09-14T09:38:44.944Z,66.21
2022-09-14T09:41:24.277Z,65.95
2022-09-14T09:44:09.356Z,66.09
2022-09-14T09:46:48.404Z,65.81
2022-09-14T09:49:40.032Z,65.74
2022-09-14T09:52:16.179Z,66.18
2022-09-14T09:54:44.113Z,66.12
2022-09-14T09:57:24.115Z,66.18
2022-09-14T09:59:50.635Z,66.46
2022-09-14T10:02:26.024Z,66.00
2022-09-14T10:04:58.636Z,66.27
2022-09-14T10:07:25.263Z,66.12
2022-09-14T10:10:12.006Z,66.16
2022-09-14T10:12:39.483Z,65.92
2022-09-14T10:15:21.230Z,66.24
2022-09-14T10:18:04.499Z,66.24
2022-09-14T10:20:31.052Z,66.24
2022-09-14T10:22:57.523Z,66.44
2022-09-14T10:25:25.726Z,66.20
2022-09-14T10:27:55.120Z,66.48
2022-09-14T10:30:22.263Z,66.04
2022-09-14T10:33:03.982Z,66.11
2022-09-14T10:35:56.267Z,65.95
2022-09-14T10:38:37.846Z,66.13
2022-09-14T10:41:08.471Z,66.37
2022-09-14T10:43:56.720Z,66.54
2022-09-14T10:46:29.657Z,66.39
2022-09-14T10:49:14.816Z,66.05
2022-09-14T10:51:47.071Z,66.19
2022-09-14T10:54:16.439Z,66.07
2022-09-14T10:56:56.042Z,66.27
2022-09-14T10:59:41.361Z,66.16
2022-09-14T11:02:20.085Z,66.38
2022-09-14T11:05:00.574Z,66.55
2022-09-14T11:07:51.349Z,66.60
2022-09-14T11:10:23.605Z,66.57
2022-09-14T11:13:05.265Z,66.53
2022-09-14T11:15:36.984Z,66.59
2022-09-14T11:18:31.905Z,66.52
2022-09-14T11:21:35.919Z,66.28
2022-09-14T11:24:10.908Z,66.17
2022-09-14T11:26:50.457Z,66.28
2022-09-14T11:29:32.120Z,66.28
2022-09-14T11:32:22.612Z,66.32
2022-09-14T11:34:57.790Z,66.73
2022-09-14T11:37:36.661Z,66.72
2022-09-14T11:40:16.784Z,66.43
2022-09-14T11:43:17.539Z,66.58
2022-09-14T11:45:48.209Z,66.30
2022-09-14T11:51:20.384Z,66.54
2022-09-14T11:53:47.248Z,66.70
2022-09-14T11:56:26.397Z,66.25
2022-09-14T11:58:58.312Z,66.22
2022-09-14T12:01:27.977Z,66.47
2022-09-14T12:04:04.330Z,66.48
2022-09-14T12:06:30.785Z,66.44
2022-09-14T12:09:25.054Z,66.50
2022-09-14T12:11:53.247Z,66.59
2022-09-14T12:14:31.980Z,66.80
2022-09-14T12:17:40.624Z,66.50
2022-09-14T12:20:32.067Z,66.41
2022-09-14T12:23:05.784Z,66.23
2022-09-14T12:25:32.323Z,66.42
2022-09-14T12:27:58.794Z,66.46
2022-09-14T12:30:39.945Z,66.63
2022-09-14T12:33:33.352Z,66.51
2022-09-14T12:36:03.666Z,66.48
2022-09-14T12:38:30.261Z,66.60
2022-09-14T12:40:57.041Z,66.67
2022-09-14T12:43:32.478Z,67.08
2022-09-14T12:46:21.750Z,67.08
2022-09-14T12:48:48.328Z,67.20
2022-09-14T12:51:32.822Z,66.81
2022-09-14T12:54:08.435Z,67.11
2022-09-14T12:56:43.924Z,67.38
2022-09-14T12:59:38.762Z,67.18
2022-09-14T13:02:43.309Z,66.93
2022-09-14T13:05:15.824Z,67.22
2022-09-14T13:07:42.406Z,67.23
2022-09-14T13:10:36.293Z,67.01
2022-09-14T13:13:05.717Z,67.10
2022-09-14T13:15:33.521Z,66.93
2022-09-14T13:18:12.480Z,66.86
2022-09-14T13:20:40.387Z,67.17
2022-09-14T13:23:36.991Z,66.74
2022-09-14T13:26:30.207Z,67.31
2022-09-14T13:28:57.903Z,66.94
2022-09-14T13:31:32.065Z,67.47
2022-09-14T13:33:58.660Z,67.43
2022-09-14T13:36:26.972Z,66.92
2022-09-14T13:38:53.883Z,67.11
2022-09-14T13:41:22.880Z,67.37
2022-09-14T13:43:52.348Z,67.31
2022-09-14T13:46:20.571Z,66.94
2022-09-14T13:48:47.368Z,67.10
2022-09-14T13:51:14.092Z,67.46
2022-09-14T13:53:51.193Z,66.90
2022-09-14T13:56:20.708Z,67.12
2022-09-14T13:58:48.659Z,67.36
2022-09-14T14:01:24.339Z,67.33
2022-09-14T14:03:50.973Z,67.35
2022-09-14T14:06:30.544Z,67.32
2022-09-14T14:09:10.717Z,66.98
2022-09-14T14:11:45.435Z,67.52
2022-09-14T14:14:19.540Z,67.44
2022-09-14T14:17:23.516Z,67.22
2022-09-14T14:19:52.512Z,67.27
2022-09-14T14:22:19.725Z,67.21
2022-09-14T14:25:12.262Z,67.28
2022-09-14T14:27:43.128Z,67.04
2022-09-14T14:30:13.828Z,67.64
2022-09-14T14:32:40.308Z,67.48
2022-09-14T14:35:17.568Z,67.51
2022-09-14T14:37:44.193Z,67.25
2022-09-14T14:40:13.792Z,67.06
2022-09-14T14:42:40.367Z,67.41
2022-09-14T14:45:07.499Z,67.52
2022-09-14T14:47:34.004Z,67.05
2022-09-14T14:50:01.136Z,67.32
2022-09-14T14:52:27.676Z,67.09
2022-09-14T14:54:54.180Z,67.22
2022-09-14T14:57:20.696Z,67.41
2022-09-14T14:59:47.182Z,67.33
2022-09-14T15:02:13.684Z,67.46
2022-09-14T15:04:40.160Z,67.45
2022-09-14T15:07:06.826Z,67.49
2022-09-14T15:09:33.323Z,67.02
2022-09-14T15:11:59.799Z,67.25
2022-09-14T15:14:27.614Z,66.98
2022-09-14T15:16:57.929Z,67.24
2022-09-14T15:19:24.692Z,66.88
2022-09-14T15:21:51.202Z,68.61
2022-09-14T15:24:17.704Z,68.76
2022-09-14T15:26:44.175Z,69.55
2022-09-14T15:29:13.249Z,69.04
2022-09-14T15:31:42.784Z,68.59
2022-09-14T15:34:09.334Z,69.13
2022-09-14T15:36:40.190Z,68.80
2022-09-14T15:39:07.104Z,68.88
2022-09-14T15:41:33.647Z,68.86
2022-09-14T15:44:00.522Z,69.31
2022-09-14T15:46:27.040Z,68.96
2022-09-14T15:48:53.506Z,68.90
2022-09-14T15:51:20.013Z,69.39
2022-09-14T15:53:47.697Z,69.45
2022-09-14T15:56:15.952Z,70.37
2022-09-14T15:58:47.789Z,70.73
2022-09-14T16:01:15.708Z,70.04
2022-09-14T16:03:42.768Z,69.99
2022-09-14T16:06:13.172Z,70.50
2022-09-14T16:08:39.982Z,70.31
2022-09-14T16:11:07.276Z,70.42
2022-09-14T16:13:34.428Z,70.58
2022-09-14T16:16:12.744Z,70.43
2022-09-14T16:18:39.356Z,70.75
2022-09-14T16:21:08.560Z,70.52
2022-09-14T16:23:36.759Z,70.48
2022-09-14T16:26:11.124Z,70.30
2022-09-14T16:28:41.661Z,70.89
2022-09-14T16:31:11.275Z,70.96
2022-09-14T16:33:42.064Z,70.88
2022-09-14T16:36:13.568Z,71.45
2022-09-14T16:38:40.170Z,71.49
2022-09-14T16:41:06.846Z,71.07
2022-09-14T16:43:33.690Z,71.72
2022-09-14T16:46:13.807Z,71.40
2022-09-14T16:48:44.757Z,70.99
2022-09-14T16:51:11.794Z,71.16
2022-09-14T16:53:39.065Z,71.54
2022-09-14T16:56:15.259Z,71.23
2022-09-14T16:58:42.219Z,70.97
2022-09-14T17:01:18.196Z,71.07
2022-09-14T17:03:45.703Z,70.79
2022-09-14T17:06:14.414Z,70.40
2022-09-14T17:08:43.807Z,70.86
2022-09-14T17:11:11.012Z,70.82
2022-09-14T17:13:37.588Z,71.32
2022-09-14T17:16:09.143Z,71.39
2022-09-14T17:18:36.998Z,71.08
2022-09-14T17:21:08.897Z,71.22
2022-09-14T17:23:35.451Z,71.44
2022-09-14T17:26:03.894Z,71.55
2022-09-14T17:28:30.415Z,71.44
2022-09-14T17:30:58.107Z,71.67
2022-09-14T17:33:24.807Z,71.51
2022-09-14T17:35:54.434Z,71.94
2022-09-14T17:38:22.191Z,71.53
2022-09-14T17:40:48.691Z,71.70
2022-09-14T17:43:15.586Z,71.78
2022-09-14T17:45:51.744Z,71.35
2022-09-14T17:48:18.258Z,71.36
2022-09-14T17:50:44.758Z,71.68
2022-09-14T17:53:11.516Z,71.43
2022-09-14T17:55:38.033Z,71.29
2022-09-14T17:58:04.528Z,71.62
2022-09-14T18:00:31.039Z,71.69
2022-09-14T18:02:57.516Z,71.55
2022-09-14T18:05:24.060Z,71.30
2022-09-14T18:07:51.386Z,71.75
2022-09-14T18:10:18.641Z,71.06
2022-09-14T18:12:45.215Z,71.52
2022-09-14T18:15:15.250Z,71.55
2022-09-14T18:17:42.779Z,71.54
2022-09-14T18:20:09.923Z,71.22
2022-09-14T18:22:37.095Z,71.29
2022-09-14T18:25:05.119Z,71.37
2022-09-14T18:27:31.935Z,70.77
2022-09-14T18:29:58.813Z,70.82
2022-09-14T18:32:25.316Z,71.18
2022-09-14T18:34:51.787Z,71.25
2022-09-14T18:37:18.335Z,70.75
2022-09-14T18:39:44.894Z,71.11
2022-09-14T18:42:11.474Z,71.21
2022-09-14T18:44:37.943Z,71.00
2022-09-14T18:47:04.676Z,71.15
2022-09-14T18:49:31.183Z,71.04
2022-09-14T18:51:57.686Z,71.38
2022-09-14T18:54:27.617Z,71.08
2022-09-14T18:56:54.455Z,70.92
2022-09-14T18:59:20.939Z,71.17
2022-09-14T19:01:47.481Z,71.15
2022-09-14T19:04:15.900Z,71.35
2022-09-14T19:06:44.377Z,71.20
2022-09-14T19:09:11.184Z,71.23
2022-09-14T19:11:37.713Z,70.69
2022-09-14T19:14:10.046Z,71.07
2022-09-14T19:16:37.777Z,70.66
2022-09-14T19:19:04.687Z,70.86
2022-09-14T19:21:31.356Z,71.08
2022-09-14T19:24:06.878Z,71.00
2022-09-14T19:26:35.887Z,70.53
2022-09-14T19:29:03.462Z,70.56
2022-09-14T19:31:33.625Z,71.17
2022-09-14T19:34:01.039Z,70.65
2022-09-14T19:36:27.883Z,70.57
2022-09-14T19:38:55.102Z,70.84
2022-09-14T19:41:21.943Z,70.97
2022-09-14T19:43:48.420Z,70.94
2022-09-14T19:46:19.032Z,71.05
2022-09-14T19:48:45.865Z,70.57
2022-09-14T19:51:29.065Z,70.35
2022-09-14T19:53:56.413Z,70.47
2022-09-14T19:56:27.711Z,70.89
2022-09-14T19:58:56.051Z,71.02
2022-09-14T20:01:23.212Z,70.89
2022-09-14T20:03:49.932Z,70.64
2022-09-14T20:06:31.775Z,70.75
2022-09-14T20:09:02.296Z,70.80
2022-09-14T20:11:30.234Z,70.72
2022-09-14T20:13:57.532Z,70.74
2022-09-14T20:16:28.617Z,70.57
2022-09-14T20:18:56.506Z,70.74
2022-09-14T20:21:24.420Z,70.97
2022-09-14T20:24:14.578Z,70.48
2022-09-14T20:26:42.028Z,70.64
2022-09-14T20:29:08.573Z,70.60
2022-09-14T20:31:35.173Z,70.64
2022-09-14T20:34:02.010Z,70.88
2022-09-14T20:36:28.766Z,70.85
2022-09-14T20:38:56.612Z,70.66
2022-09-14T20:41:29.688Z,70.89
2022-09-14T20:43:56.302Z,70.47
2022-09-14T20:46:24.507Z,70.52
2022-09-14T20:48:51.294Z,70.41
2022-09-14T20:51:20.503Z,70.66
2022-09-14T20:53:47.460Z,70.43
2022-09-14T20:56:19.008Z,70.36
2022-09-14T20:58:45.701Z,70.20
2022-09-14T21:01:13.919Z,70.73
2022-09-14T21:03:42.275Z,70.56
2022-09-14T21:06:14.648Z,70.75
2022-09-14T21:08:41.290Z,70.84
2022-09-14T21:11:13.045Z,70.79
2022-09-14T21:13:39.552Z,70.51
2022-09-14T21:16:13.347Z,70.39
2022-09-14T21:18:40.228Z,70.35
2022-09-14T21:21:08.154Z,70.28
2022-09-14T21:23:34.662Z,70.70
2022-09-14T21:26:01.159Z,70.37
2022-09-14T21:28:27.696Z,70.66
2022-09-14T21:31:12.658Z,70.37
2022-09-14T21:33:42.907Z,70.27
2022-09-14T21:36:14.530Z,70.25
2022-09-14T21:38:41.251Z,70.29
2022-09-14T21:41:08.901Z,70.25
2022-09-14T21:43:39.119Z,70.43
2022-09-14T21:46:05.977Z,70.23
2022-09-14T21:48:32.556Z,70.42
2022-09-14T21:51:19.364Z,70.54
2022-09-14T21:53:56.872Z,70.50
2022-09-14T21:56:24.883Z,70.60
2022-09-14T21:58:56.364Z,70.74
2022-09-14T22:01:23.819Z,70.21
2022-09-14T22:03:51.537Z,70.19
2022-09-14T22:06:19.208Z,70.54
2022-09-14T22:08:46.250Z,70.20
2022-09-14T22:11:19.093Z,70.38
2022-09-14T22:13:55.724Z,70.66
2022-09-14T22:16:23.007Z,70.39
2022-09-14T22:18:59.827Z,70.37
2022-09-14T22:21:27.484Z,70.51
2022-09-14T22:23:55.969Z,70.27
2022-09-14T22:26:22.592Z,70.24
2022-09-14T22:28:50.144Z,70.68
2022-09-14T22:31:17.660Z,70.56
2022-09-14T22:33:44.276Z,70.54
2022-09-14T22:36:10.993Z,70.13
2022-09-14T22:38:37.551Z,70.45
2022-09-14T22:41:06.075Z,70.31
2022-09-14T22:43:33.860Z,70.13
2022-09-14T22:46:00.490Z,70.28
2022-09-14T22:48:27.071Z,70.27
2022-09-14T22:50:55.572Z,70.32
2022-09-14T22:53:22.821Z,70.24
2022-09-14T22:55:49.507Z,70.01
2022-09-14T22:58:18.987Z,70.28
2022-09-14T23:00:46.382Z,70.48
2022-09-14T23:03:13.435Z,70.12
2022-09-14T23:05:40.262Z,70.22
2022-09-14T23:08:07.798Z,70.33
2022-09-14T23:10:37.594Z,70.35
2022-09-14T23:13:04.108Z,70.11
2022-09-14T23:15:30.907Z,70.46
2022-09-14T23:17:57.412Z,70.32
2022-09-14T23:20:23.967Z,70.49
2022-09-14T23:22:50.455Z,69.92
2022-09-14T23:25:17.002Z,70.12
2022-09-14T23:27:43.498Z,70.49
2022-09-14T23:30:10.404Z,70.13
2022-09-14T23:32:36.955Z,70.31
2022-09-14T23:35:03.635Z,70.46
2022-09-14T23:37:30.128Z,69.95
2022-09-14T23:39:56.921Z,70.19
2022-09-14T23:42:23.459Z,70.32
2022-09-14T23:44:49.958Z,70.65
2022-09-14T23:47:17.494Z,70.42
2022-09-14T23:49:44.042Z,70.59
2022-09-14T23:52:10.538Z,70.50
2022-09-14T23:54:37.057Z,70.66
2022-09-14T23:57:03.611Z,70.49
2022-09-14T23:59:30.111Z,70.61
